sensor_id;sensor_type;location;lat;lon;timestamp;temperature;humidity
40151;DHT22;25866;52.420;10.640;2022-10-28T00:02:16;14.20;99.90
40151;DHT22;25866;52.420;10.640;2022-10-28T00:04:42;14.20;99.90
40151;DHT22;25866;52.420;10.640;2022-10-28T00:07:07;14.10;99.90
40151;DHT22;25866;52.420;10.640;2022-10-28T00:09:33;14.00;99.90
40151;DHT22;25866;52.420;10.640;2022-10-28T00:11:59;14.00;99.90
40151;DHT22;25866;52.420;10.640;2022-10-28T00:14:26;14.00;99.90
40151;DHT22;25866;52.420;10.640;2022-10-28T00:16:53;14.00;99.90
40151;DHT22;25866;52.420;10.640;2022-10-28T00:19:18;14.00;99.90
40151;DHT22;25866;52.420;10.640;2022-10-28T00:21:44;13.90;99.90
40151;DHT22;25866;52.420;10.640;2022-10-28T00:24:11;13.90;99.90
40151;DHT22;25866;52.420;10.640;2022-10-28T00:26:40;13.80;99.90
40151;DHT22;25866;52.420;10.640;2022-10-28T00:29:15;13.70;99.90
40151;DHT22;25866;52.420;10.640;2022-10-28T00:31:42;13.70;99.90
40151;DHT22;25866;52.420;10.640;2022-10-28T00:34:13;13.70;99.90
40151;DHT22;25866;52.420;10.640;2022-10-28T00:36:41;13.70;99.90
40151;DHT22;25866;52.420;10.640;2022-10-28T00:39:13;13.60;99.90
40151;DHT22;25866;52.420;10.640;2022-10-28T00:41:42;13.60;99.90
40151;DHT22;25866;52.420;10.640;2022-10-28T00:49:45;13.50;99.90
40151;DHT22;25866;52.420;10.640;2022-10-28T00:52:16;13.50;99.90
40151;DHT22;25866;52.420;10.640;2022-10-28T00:54:44;13.50;99.90
40151;DHT22;25866;52.420;10.640;2022-10-28T00:57:16;13.50;99.90
40151;DHT22;25866;52.420;10.640;2022-10-28T00:59:47;13.40;99.90
40151;DHT22;25866;52.420;10.640;2022-10-28T01:02:14;13.30;99.90
40151;DHT22;25866;52.420;10.640;2022-10-28T01:04:40;13.20;99.90
40151;DHT22;25866;52.420;10.640;2022-10-28T01:07:07;13.20;99.90
40151;DHT22;25866;52.420;10.640;2022-10-28T01:09:33;13.20;99.90
40151;DHT22;25866;52.420;10.640;2022-10-28T01:23:03;13.20;99.90
40151;DHT22;25866;52.420;10.640;2022-10-28T01:25:49;13.20;99.90
40151;DHT22;25866;52.420;10.640;2022-10-28T01:39:30;13.20;99.90
40151;DHT22;25866;52.420;10.640;2022-10-28T01:47:38;13.30;99.90
40151;DHT22;25866;52.420;10.640;2022-10-28T01:50:13;13.30;99.90
40151;DHT22;25866;52.420;10.640;2022-10-28T01:52:40;13.40;99.90
40151;DHT22;25866;52.420;10.640;2022-10-28T01:55:21;13.50;99.90
40151;DHT22;25866;52.420;10.640;2022-10-28T01:57:51;13.60;99.90
40151;DHT22;25866;52.420;10.640;2022-10-28T02:00:17;13.60;99.90
40151;DHT22;25866;52.420;10.640;2022-10-28T02:02:44;13.60;99.90
40151;DHT22;25866;52.420;10.640;2022-10-28T02:05:41;13.60;99.90
40151;DHT22;25866;52.420;10.640;2022-10-28T02:14:25;13.70;99.90
40151;DHT22;25866;52.420;10.640;2022-10-28T02:30:18;13.80;99.90
40151;DHT22;25866;52.420;10.640;2022-10-28T02:32:56;13.70;99.90
40151;DHT22;25866;52.420;10.640;2022-10-28T02:38:23;13.70;99.90
40151;DHT22;25866;52.420;10.640;2022-10-28T02:40:53;13.70;99.90
40151;DHT22;25866;52.420;10.640;2022-10-28T02:43:21;13.70;99.90
40151;DHT22;25866;52.420;10.640;2022-10-28T02:45:51;13.70;99.90
40151;DHT22;25866;52.420;10.640;2022-10-28T02:48:32;13.70;99.90
40151;DHT22;25866;52.420;10.640;2022-10-28T02:51:04;13.80;99.90
40151;DHT22;25866;52.420;10.640;2022-10-28T02:53:55;13.80;99.90
40151;DHT22;25866;52.420;10.640;2022-10-28T02:56:23;13.70;99.90
40151;DHT22;25866;52.420;10.640;2022-10-28T02:58:49;13.80;99.90
40151;DHT22;25866;52.420;10.640;2022-10-28T03:01:15;13.80;99.90
40151;DHT22;25866;52.420;10.640;2022-10-28T03:03:41;13.90;99.90
40151;DHT22;25866;52.420;10.640;2022-10-28T03:06:07;14.00;99.90
40151;DHT22;25866;52.420;10.640;2022-10-28T03:08:33;14.10;99.90
40151;DHT22;25866;52.420;10.640;2022-10-28T03:10:58;14.20;99.90
40151;DHT22;25866;52.420;10.640;2022-10-28T03:13:24;14.30;99.90
40151;DHT22;25866;52.420;10.640;2022-10-28T03:15:50;14.30;99.90
40151;DHT22;25866;52.420;10.640;2022-10-28T03:18:15;14.40;99.90
40151;DHT22;25866;52.420;10.640;2022-10-28T03:20:41;14.50;99.90
40151;DHT22;25866;52.420;10.640;2022-10-28T03:23:07;14.50;99.90
40151;DHT22;25866;52.420;10.640;2022-10-28T03:25:33;14.50;99.90
40151;DHT22;25866;52.420;10.640;2022-10-28T03:27:58;14.60;99.90
40151;DHT22;25866;52.420;10.640;2022-10-28T03:30:24;14.50;99.90
40151;DHT22;25866;52.420;10.640;2022-10-28T03:32:50;14.50;99.90
40151;DHT22;25866;52.420;10.640;2022-10-28T03:35:15;14.50;99.90
40151;DHT22;25866;52.420;10.640;2022-10-28T03:37:41;14.50;99.90
40151;DHT22;25866;52.420;10.640;2022-10-28T03:40:11;14.50;99.90
40151;DHT22;25866;52.420;10.640;2022-10-28T03:42:38;14.40;99.90
40151;DHT22;25866;52.420;10.640;2022-10-28T03:45:04;14.30;99.90
40151;DHT22;25866;52.420;10.640;2022-10-28T03:47:30;14.30;99.90
40151;DHT22;25866;52.420;10.640;2022-10-28T03:49:56;14.30;99.90
40151;DHT22;25866;52.420;10.640;2022-10-28T03:52:21;14.30;99.90
40151;DHT22;25866;52.420;10.640;2022-10-28T03:54:47;14.20;99.90
40151;DHT22;25866;52.420;10.640;2022-10-28T03:57:13;14.20;99.90
40151;DHT22;25866;52.420;10.640;2022-10-28T03:59:38;14.10;99.90
40151;DHT22;25866;52.420;10.640;2022-10-28T04:02:04;14.10;99.90
40151;DHT22;25866;52.420;10.640;2022-10-28T04:04:30;14.00;99.90
40151;DHT22;25866;52.420;10.640;2022-10-28T04:06:55;13.90;99.90
40151;DHT22;25866;52.420;10.640;2022-10-28T04:09:21;13.90;99.90
40151;DHT22;25866;52.420;10.640;2022-10-28T04:11:47;13.90;99.90
40151;DHT22;25866;52.420;10.640;2022-10-28T04:14:14;13.80;99.90
40151;DHT22;25866;52.420;10.640;2022-10-28T04:16:39;13.80;99.90
40151;DHT22;25866;52.420;10.640;2022-10-28T04:19:05;13.70;99.90
40151;DHT22;25866;52.420;10.640;2022-10-28T04:21:31;13.70;99.90
40151;DHT22;25866;52.420;10.640;2022-10-28T04:23:58;13.70;99.90
40151;DHT22;25866;52.420;10.640;2022-10-28T04:26:23;13.70;99.90
40151;DHT22;25866;52.420;10.640;2022-10-28T04:28:49;13.80;99.90
40151;DHT22;25866;52.420;10.640;2022-10-28T04:31:15;13.70;99.90
40151;DHT22;25866;52.420;10.640;2022-10-28T04:33:41;13.80;99.90
40151;DHT22;25866;52.420;10.640;2022-10-28T04:36:07;13.70;99.90
40151;DHT22;25866;52.420;10.640;2022-10-28T04:38:33;13.80;99.90
40151;DHT22;25866;52.420;10.640;2022-10-28T04:40:58;13.70;99.90
40151;DHT22;25866;52.420;10.640;2022-10-28T04:43:24;13.70;99.90
40151;DHT22;25866;52.420;10.640;2022-10-28T04:45:50;13.70;99.90
40151;DHT22;25866;52.420;10.640;2022-10-28T04:48:16;13.70;99.90
40151;DHT22;25866;52.420;10.640;2022-10-28T04:50:41;13.70;99.90
40151;DHT22;25866;52.420;10.640;2022-10-28T04:53:07;13.60;99.90
40151;DHT22;25866;52.420;10.640;2022-10-28T04:55:33;13.60;99.90
40151;DHT22;25866;52.420;10.640;2022-10-28T04:57:59;13.60;99.90
40151;DHT22;25866;52.420;10.640;2022-10-28T05:00:26;13.60;99.90
40151;DHT22;25866;52.420;10.640;2022-10-28T05:02:52;13.70;99.90
40151;DHT22;25866;52.420;10.640;2022-10-28T05:05:18;13.70;99.90
40151;DHT22;25866;52.420;10.640;2022-10-28T05:07:44;13.70;99.90
40151;DHT22;25866;52.420;10.640;2022-10-28T05:10:10;13.70;99.90
40151;DHT22;25866;52.420;10.640;2022-10-28T05:12:40;13.70;99.90
40151;DHT22;25866;52.420;10.640;2022-10-28T05:15:06;13.70;99.90
40151;DHT22;25866;52.420;10.640;2022-10-28T05:17:32;13.70;99.90
40151;DHT22;25866;52.420;10.640;2022-10-28T05:19:58;13.70;99.90
40151;DHT22;25866;52.420;10.640;2022-10-28T05:22:23;13.70;99.90
40151;DHT22;25866;52.420;10.640;2022-10-28T05:24:49;13.70;99.90
40151;DHT22;25866;52.420;10.640;2022-10-28T05:27:15;13.60;99.90
40151;DHT22;25866;52.420;10.640;2022-10-28T05:29:41;13.60;99.90
40151;DHT22;25866;52.420;10.640;2022-10-28T05:32:06;13.60;99.90
40151;DHT22;25866;52.420;10.640;2022-10-28T05:34:32;13.50;99.90
40151;DHT22;25866;52.420;10.640;2022-10-28T05:36:57;13.50;99.90
40151;DHT22;25866;52.420;10.640;2022-10-28T05:39:23;13.50;99.90
40151;DHT22;25866;52.420;10.640;2022-10-28T05:41:49;13.50;99.90
40151;DHT22;25866;52.420;10.640;2022-10-28T05:44:14;13.50;99.90
40151;DHT22;25866;52.420;10.640;2022-10-28T05:46:40;13.50;99.90
40151;DHT22;25866;52.420;10.640;2022-10-28T05:49:06;13.50;99.90
40151;DHT22;25866;52.420;10.640;2022-10-28T05:51:31;13.50;99.90
40151;DHT22;25866;52.420;10.640;2022-10-28T05:53:57;13.50;99.90
40151;DHT22;25866;52.420;10.640;2022-10-28T05:56:23;13.50;99.90
40151;DHT22;25866;52.420;10.640;2022-10-28T05:58:48;13.40;99.90
40151;DHT22;25866;52.420;10.640;2022-10-28T06:01:14;13.40;99.90
40151;DHT22;25866;52.420;10.640;2022-10-28T06:03:40;13.50;99.90
40151;DHT22;25866;52.420;10.640;2022-10-28T06:06:06;13.50;99.90
40151;DHT22;25866;52.420;10.640;2022-10-28T06:08:31;13.50;99.90
40151;DHT22;25866;52.420;10.640;2022-10-28T06:10:57;13.50;99.90
40151;DHT22;25866;52.420;10.640;2022-10-28T06:13:23;13.50;99.90
40151;DHT22;25866;52.420;10.640;2022-10-28T06:15:53;13.50;99.90
40151;DHT22;25866;52.420;10.640;2022-10-28T06:18:20;13.50;99.90
40151;DHT22;25866;52.420;10.640;2022-10-28T06:20:54;13.50;99.90
40151;DHT22;25866;52.420;10.640;2022-10-28T06:23:24;13.50;99.90
40151;DHT22;25866;52.420;10.640;2022-10-28T06:25:55;13.50;99.90
40151;DHT22;25866;52.420;10.640;2022-10-28T06:28:21;13.50;99.90
40151;DHT22;25866;52.420;10.640;2022-10-28T06:30:47;13.50;99.90
40151;DHT22;25866;52.420;10.640;2022-10-28T06:33:13;13.60;99.90
40151;DHT22;25866;52.420;10.640;2022-10-28T06:35:38;13.60;99.90
40151;DHT22;25866;52.420;10.640;2022-10-28T06:38:04;13.60;99.90
40151;DHT22;25866;52.420;10.640;2022-10-28T06:40:30;13.70;99.90
40151;DHT22;25866;52.420;10.640;2022-10-28T06:43:00;13.70;99.90
40151;DHT22;25866;52.420;10.640;2022-10-28T06:45:27;13.80;99.90
40151;DHT22;25866;52.420;10.640;2022-10-28T06:47:57;13.80;99.90
40151;DHT22;25866;52.420;10.640;2022-10-28T06:50:23;13.80;99.90
40151;DHT22;25866;52.420;10.640;2022-10-28T06:52:49;13.90;99.90
40151;DHT22;25866;52.420;10.640;2022-10-28T06:55:15;13.80;99.90
40151;DHT22;25866;52.420;10.640;2022-10-28T06:57:41;13.70;99.90
40151;DHT22;25866;52.420;10.640;2022-10-28T07:00:07;13.70;99.90
40151;DHT22;25866;52.420;10.640;2022-10-28T07:02:33;13.60;99.90
40151;DHT22;25866;52.420;10.640;2022-10-28T07:04:58;13.60;99.90
40151;DHT22;25866;52.420;10.640;2022-10-28T07:07:24;13.60;99.90
40151;DHT22;25866;52.420;10.640;2022-10-28T07:09:49;13.50;99.90
40151;DHT22;25866;52.420;10.640;2022-10-28T07:12:15;13.60;99.90
40151;DHT22;25866;52.420;10.640;2022-10-28T07:14:41;13.60;99.90
40151;DHT22;25866;52.420;10.640;2022-10-28T07:17:06;13.70;99.90
40151;DHT22;25866;52.420;10.640;2022-10-28T07:19:32;13.80;99.90
40151;DHT22;25866;52.420;10.640;2022-10-28T07:21:58;14.00;99.90
40151;DHT22;25866;52.420;10.640;2022-10-28T07:24:23;14.10;99.90
40151;DHT22;25866;52.420;10.640;2022-10-28T07:26:49;14.20;99.90
40151;DHT22;25866;52.420;10.640;2022-10-28T07:29:15;14.40;99.90
40151;DHT22;25866;52.420;10.640;2022-10-28T07:31:41;14.50;99.90
40151;DHT22;25866;52.420;10.640;2022-10-28T07:34:07;14.50;99.90
40151;DHT22;25866;52.420;10.640;2022-10-28T07:36:32;14.60;99.90
40151;DHT22;25866;52.420;10.640;2022-10-28T07:38:58;14.70;99.90
40151;DHT22;25866;52.420;10.640;2022-10-28T07:41:24;14.70;99.90
40151;DHT22;25866;52.420;10.640;2022-10-28T07:43:50;14.60;99.90
40151;DHT22;25866;52.420;10.640;2022-10-28T07:46:16;14.60;99.90
40151;DHT22;25866;52.420;10.640;2022-10-28T07:48:42;14.60;99.90
40151;DHT22;25866;52.420;10.640;2022-10-28T07:51:11;14.60;99.90
40151;DHT22;25866;52.420;10.640;2022-10-28T07:53:37;14.70;99.90
40151;DHT22;25866;52.420;10.640;2022-10-28T07:56:06;14.70;99.90
40151;DHT22;25866;52.420;10.640;2022-10-28T07:58:35;14.80;99.90
40151;DHT22;25866;52.420;10.640;2022-10-28T08:01:05;14.90;99.90
40151;DHT22;25866;52.420;10.640;2022-10-28T08:03:31;14.90;99.90
40151;DHT22;25866;52.420;10.640;2022-10-28T08:06:03;14.90;99.90
40151;DHT22;25866;52.420;10.640;2022-10-28T08:08:29;15.00;99.90
40151;DHT22;25866;52.420;10.640;2022-10-28T08:10:54;15.00;99.90
40151;DHT22;25866;52.420;10.640;2022-10-28T08:13:20;15.00;99.90
40151;DHT22;25866;52.420;10.640;2022-10-28T08:15:53;15.10;99.90
40151;DHT22;25866;52.420;10.640;2022-10-28T08:18:19;15.10;99.90
40151;DHT22;25866;52.420;10.640;2022-10-28T08:20:45;15.10;99.90
40151;DHT22;25866;52.420;10.640;2022-10-28T08:23:11;15.20;99.90
40151;DHT22;25866;52.420;10.640;2022-10-28T08:25:36;15.30;99.90
40151;DHT22;25866;52.420;10.640;2022-10-28T08:28:02;15.40;99.90
40151;DHT22;25866;52.420;10.640;2022-10-28T08:30:28;15.50;99.90
40151;DHT22;25866;52.420;10.640;2022-10-28T08:32:54;15.70;99.90
40151;DHT22;25866;52.420;10.640;2022-10-28T08:35:20;15.70;99.90
40151;DHT22;25866;52.420;10.640;2022-10-28T08:37:52;15.90;99.90
40151;DHT22;25866;52.420;10.640;2022-10-28T08:40:21;15.90;99.90
40151;DHT22;25866;52.420;10.640;2022-10-28T08:42:55;16.00;99.90
40151;DHT22;25866;52.420;10.640;2022-10-28T08:48:19;16.10;99.90
40151;DHT22;25866;52.420;10.640;2022-10-28T08:50:52;16.20;99.90
40151;DHT22;25866;52.420;10.640;2022-10-28T08:53:33;16.30;99.90
40151;DHT22;25866;52.420;10.640;2022-10-28T08:56:09;16.40;99.90
40151;DHT22;25866;52.420;10.640;2022-10-28T08:58:41;16.60;99.90
40151;DHT22;25866;52.420;10.640;2022-10-28T09:01:15;16.70;99.90
40151;DHT22;25866;52.420;10.640;2022-10-28T09:03:44;16.80;99.90
40151;DHT22;25866;52.420;10.640;2022-10-28T09:06:12;16.90;99.90
40151;DHT22;25866;52.420;10.640;2022-10-28T09:08:41;17.00;99.90
40151;DHT22;25866;52.420;10.640;2022-10-28T09:11:37;17.00;99.90
40151;DHT22;25866;52.420;10.640;2022-10-28T09:17:00;17.20;99.90
40151;DHT22;25866;52.420;10.640;2022-10-28T09:22:23;17.20;99.90
40151;DHT22;25866;52.420;10.640;2022-10-28T09:24:53;17.30;99.90
40151;DHT22;25866;52.420;10.640;2022-10-28T09:27:45;17.30;99.90
40151;DHT22;25866;52.420;10.640;2022-10-28T09:36:11;17.70;99.90
40151;DHT22;25866;52.420;10.640;2022-10-28T09:38:38;17.70;99.90
40151;DHT22;25866;52.420;10.640;2022-10-28T09:41:11;17.80;99.90
40151;DHT22;25866;52.420;10.640;2022-10-28T09:43:45;17.90;99.90
40151;DHT22;25866;52.420;10.640;2022-10-28T09:46:15;18.10;99.90
40151;DHT22;25866;52.420;10.640;2022-10-28T09:48:47;18.30;99.90
40151;DHT22;25866;52.420;10.640;2022-10-28T09:54:13;18.60;99.90
40151;DHT22;25866;52.420;10.640;2022-10-28T09:56:39;18.80;99.90
40151;DHT22;25866;52.420;10.640;2022-10-28T09:59:06;18.80;99.90
40151;DHT22;25866;52.420;10.640;2022-10-28T10:01:42;19.00;99.90
40151;DHT22;25866;52.420;10.640;2022-10-28T10:04:19;19.10;99.90
40151;DHT22;25866;52.420;10.640;2022-10-28T10:06:53;19.20;99.90
40151;DHT22;25866;52.420;10.640;2022-10-28T10:09:23;19.30;99.90
40151;DHT22;25866;52.420;10.640;2022-10-28T10:11:58;19.30;99.90
40151;DHT22;25866;52.420;10.640;2022-10-28T10:14:28;19.40;99.90
40151;DHT22;25866;52.420;10.640;2022-10-28T10:17:04;19.40;99.90
40151;DHT22;25866;52.420;10.640;2022-10-28T10:19:59;19.50;99.90
40151;DHT22;25866;52.420;10.640;2022-10-28T10:22:31;19.60;99.90
40151;DHT22;25866;52.420;10.640;2022-10-28T10:24:57;19.60;99.90
40151;DHT22;25866;52.420;10.640;2022-10-28T10:27:24;19.70;99.90
40151;DHT22;25866;52.420;10.640;2022-10-28T10:29:51;19.80;99.90
40151;DHT22;25866;52.420;10.640;2022-10-28T10:32:25;19.80;99.90
40151;DHT22;25866;52.420;10.640;2022-10-28T10:35:42;19.90;99.90
40151;DHT22;25866;52.420;10.640;2022-10-28T10:37:50;20.10;99.90
40151;DHT22;25866;52.420;10.640;2022-10-28T10:40:28;20.10;99.90
40151;DHT22;25866;52.420;10.640;2022-10-28T10:45:52;20.30;99.90
40151;DHT22;25866;52.420;10.640;2022-10-28T10:48:23;20.40;99.90
40151;DHT22;25866;52.420;10.640;2022-10-28T10:50:49;20.50;99.90
40151;DHT22;25866;52.420;10.640;2022-10-28T10:53:30;20.60;99.90
40151;DHT22;25866;52.420;10.640;2022-10-28T10:55:59;20.70;99.90
40151;DHT22;25866;52.420;10.640;2022-10-28T10:58:29;20.80;99.90
40151;DHT22;25866;52.420;10.640;2022-10-28T11:00:56;20.90;99.90
40151;DHT22;25866;52.420;10.640;2022-10-28T11:05:55;20.80;99.90
40151;DHT22;25866;52.420;10.640;2022-10-28T11:08:39;20.90;99.90
40151;DHT22;25866;52.420;10.640;2022-10-28T11:11:39;21.00;99.90
40151;DHT22;25866;52.420;10.640;2022-10-28T11:14:09;21.10;99.90
40151;DHT22;25866;52.420;10.640;2022-10-28T11:16:48;21.20;99.90
40151;DHT22;25866;52.420;10.640;2022-10-28T11:19:28;21.30;99.90
40151;DHT22;25866;52.420;10.640;2022-10-28T11:29:47;21.50;99.90
40151;DHT22;25866;52.420;10.640;2022-10-28T11:38:03;21.40;99.90
40151;DHT22;25866;52.420;10.640;2022-10-28T11:43:30;21.30;99.90
40151;DHT22;25866;52.420;10.640;2022-10-28T11:46:19;21.40;99.90
40151;DHT22;25866;52.420;10.640;2022-10-28T11:54:30;21.50;99.90
40151;DHT22;25866;52.420;10.640;2022-10-28T11:57:17;21.60;99.90
40151;DHT22;25866;52.420;10.640;2022-10-28T12:05:53;21.60;99.90
40151;DHT22;25866;52.420;10.640;2022-10-28T12:08:44;21.70;99.90
40151;DHT22;25866;52.420;10.640;2022-10-28T12:16:36;21.70;99.90
40151;DHT22;25866;52.420;10.640;2022-10-28T12:21:39;21.90;99.90
40151;DHT22;25866;52.420;10.640;2022-10-28T12:24:13;21.80;99.90
40151;DHT22;25866;52.420;10.640;2022-10-28T12:26:49;21.90;99.90
40151;DHT22;25866;52.420;10.640;2022-10-28T12:29:28;22.00;99.90
40151;DHT22;25866;52.420;10.640;2022-10-28T12:32:10;21.90;99.90
40151;DHT22;25866;52.420;10.640;2022-10-28T12:34:54;21.90;99.90
40151;DHT22;25866;52.420;10.640;2022-10-28T12:37:44;22.00;99.90
40151;DHT22;25866;52.420;10.640;2022-10-28T12:40:18;21.90;99.90
40151;DHT22;25866;52.420;10.640;2022-10-28T12:43:31;21.90;99.90
40151;DHT22;25866;52.420;10.640;2022-10-28T12:45:52;21.90;99.90
40151;DHT22;25866;52.420;10.640;2022-10-28T12:51:17;22.10;99.90
40151;DHT22;25866;52.420;10.640;2022-10-28T12:53:52;22.10;99.90
40151;DHT22;25866;52.420;10.640;2022-10-28T12:56:31;22.10;99.90
40151;DHT22;25866;52.420;10.640;2022-10-28T12:59:08;22.00;99.90
40151;DHT22;25866;52.420;10.640;2022-10-28T13:01:36;21.90;99.90
40151;DHT22;25866;52.420;10.640;2022-10-28T13:04:02;21.80;99.90
40151;DHT22;25866;52.420;10.640;2022-10-28T13:23:26;22.40;99.90
40151;DHT22;25866;52.420;10.640;2022-10-28T13:28:46;22.30;99.90
40151;DHT22;25866;52.420;10.640;2022-10-28T13:31:13;22.20;99.90
40151;DHT22;25866;52.420;10.640;2022-10-28T13:33:55;22.20;99.90
40151;DHT22;25866;52.420;10.640;2022-10-28T13:36:34;22.10;99.90
40151;DHT22;25866;52.420;10.640;2022-10-28T13:39:05;22.00;99.90
40151;DHT22;25866;52.420;10.640;2022-10-28T13:41:37;21.90;99.90
40151;DHT22;25866;52.420;10.640;2022-10-28T13:49:38;21.80;99.90
40151;DHT22;25866;52.420;10.640;2022-10-28T13:52:23;21.80;99.90
40151;DHT22;25866;52.420;10.640;2022-10-28T13:54:53;21.80;99.90
40151;DHT22;25866;52.420;10.640;2022-10-28T13:57:31;21.80;99.90
40151;DHT22;25866;52.420;10.640;2022-10-28T14:00:03;21.80;99.90
40151;DHT22;25866;52.420;10.640;2022-10-28T14:02:38;21.70;99.90
40151;DHT22;25866;52.420;10.640;2022-10-28T14:05:09;21.60;99.90
40151;DHT22;25866;52.420;10.640;2022-10-28T14:07:49;21.50;99.90
40151;DHT22;25866;52.420;10.640;2022-10-28T14:10:24;21.50;99.90
40151;DHT22;25866;52.420;10.640;2022-10-28T14:12:57;21.40;99.90
40151;DHT22;25866;52.420;10.640;2022-10-28T14:15:33;21.40;99.90
40151;DHT22;25866;52.420;10.640;2022-10-28T14:20:54;21.20;99.90
40151;DHT22;25866;52.420;10.640;2022-10-28T14:33:37;21.00;99.90
40151;DHT22;25866;52.420;10.640;2022-10-28T14:42:00;20.70;99.90
40151;DHT22;25866;52.420;10.640;2022-10-28T14:50:00;20.60;99.90
40151;DHT22;25866;52.420;10.640;2022-10-28T14:52:30;20.60;99.90
40151;DHT22;25866;52.420;10.640;2022-10-28T14:55:00;20.50;99.90
40151;DHT22;25866;52.420;10.640;2022-10-28T14:57:31;20.50;99.90
40151;DHT22;25866;52.420;10.640;2022-10-28T15:00:02;20.50;99.90
40151;DHT22;25866;52.420;10.640;2022-10-28T15:02:30;20.40;99.90
40151;DHT22;25866;52.420;10.640;2022-10-28T15:05:17;20.40;99.90
40151;DHT22;25866;52.420;10.640;2022-10-28T15:07:45;20.40;99.90
40151;DHT22;25866;52.420;10.640;2022-10-28T15:10:21;20.30;99.90
40151;DHT22;25866;52.420;10.640;2022-10-28T15:12:50;20.30;99.90
40151;DHT22;25866;52.420;10.640;2022-10-28T15:15:29;20.20;99.90
40151;DHT22;25866;52.420;10.640;2022-10-28T15:17:55;20.20;99.90
40151;DHT22;25866;52.420;10.640;2022-10-28T15:20:30;20.10;99.90
40151;DHT22;25866;52.420;10.640;2022-10-28T15:23:18;20.10;99.90
40151;DHT22;25866;52.420;10.640;2022-10-28T15:25:44;20.10;99.90
40151;DHT22;25866;52.420;10.640;2022-10-28T15:28:13;20.00;99.90
40151;DHT22;25866;52.420;10.640;2022-10-28T15:30:41;20.00;99.90
40151;DHT22;25866;52.420;10.640;2022-10-28T15:36:20;19.90;99.90
40151;DHT22;25866;52.420;10.640;2022-10-28T15:38:51;19.90;99.90
40151;DHT22;25866;52.420;10.640;2022-10-28T15:43:59;19.70;99.90
40151;DHT22;25866;52.420;10.640;2022-10-28T15:46:26;19.70;99.90
40151;DHT22;25866;52.420;10.640;2022-10-28T15:48:53;19.70;99.90
40151;DHT22;25866;52.420;10.640;2022-10-28T15:51:20;19.60;99.90
40151;DHT22;25866;52.420;10.640;2022-10-28T15:53:53;19.50;99.90
40151;DHT22;25866;52.420;10.640;2022-10-28T15:58:55;19.30;99.90
40151;DHT22;25866;52.420;10.640;2022-10-28T16:04:00;19.10;99.90
40151;DHT22;25866;52.420;10.640;2022-10-28T16:06:33;19.00;99.90
40151;DHT22;25866;52.420;10.640;2022-10-28T16:09:18;19.00;99.90
40151;DHT22;25866;52.420;10.640;2022-10-28T16:11:53;18.90;99.90
40151;DHT22;25866;52.420;10.640;2022-10-28T16:14:30;18.80;99.90
40151;DHT22;25866;52.420;10.640;2022-10-28T16:19:43;18.80;99.90
40151;DHT22;25866;52.420;10.640;2022-10-28T16:22:12;18.70;99.90
40151;DHT22;25866;52.420;10.640;2022-10-28T16:24:38;18.70;99.90
40151;DHT22;25866;52.420;10.640;2022-10-28T16:29:47;18.70;99.90
40151;DHT22;25866;52.420;10.640;2022-10-28T16:32:14;18.80;99.90
40151;DHT22;25866;52.420;10.640;2022-10-28T16:34:40;18.80;99.90
40151;DHT22;25866;52.420;10.640;2022-10-28T16:37:33;18.80;99.90
40151;DHT22;25866;52.420;10.640;2022-10-28T16:39:58;18.80;99.90
40151;DHT22;25866;52.420;10.640;2022-10-28T16:42:24;18.80;99.90
40151;DHT22;25866;52.420;10.640;2022-10-28T16:44:51;18.70;99.90
40151;DHT22;25866;52.420;10.640;2022-10-28T16:47:19;18.70;99.90
40151;DHT22;25866;52.420;10.640;2022-10-28T16:49:45;18.70;99.90
40151;DHT22;25866;52.420;10.640;2022-10-28T16:52:21;18.70;99.90
40151;DHT22;25866;52.420;10.640;2022-10-28T16:54:48;18.60;99.90
40151;DHT22;25866;52.420;10.640;2022-10-28T16:57:15;18.60;99.90
40151;DHT22;25866;52.420;10.640;2022-10-28T16:59:41;18.60;99.90
40151;DHT22;25866;52.420;10.640;2022-10-28T17:02:21;18.60;99.90
40151;DHT22;25866;52.420;10.640;2022-10-28T17:04:48;18.50;99.90
40151;DHT22;25866;52.420;10.640;2022-10-28T17:07:13;18.50;99.90
40151;DHT22;25866;52.420;10.640;2022-10-28T17:09:43;18.50;99.90
40151;DHT22;25866;52.420;10.640;2022-10-28T17:12:18;18.40;99.90
40151;DHT22;25866;52.420;10.640;2022-10-28T17:14:44;18.40;99.90
40151;DHT22;25866;52.420;10.640;2022-10-28T17:17:10;18.40;99.90
40151;DHT22;25866;52.420;10.640;2022-10-28T17:19:37;18.40;99.90
40151;DHT22;25866;52.420;10.640;2022-10-28T17:22:04;18.30;99.90
40151;DHT22;25866;52.420;10.640;2022-10-28T17:24:30;18.30;99.90
40151;DHT22;25866;52.420;10.640;2022-10-28T17:26:55;18.20;99.90
40151;DHT22;25866;52.420;10.640;2022-10-28T17:29:21;18.30;99.90
40151;DHT22;25866;52.420;10.640;2022-10-28T17:31:47;18.20;99.90
40151;DHT22;25866;52.420;10.640;2022-10-28T17:34:13;18.20;99.90
40151;DHT22;25866;52.420;10.640;2022-10-28T17:36:38;18.10;99.90
40151;DHT22;25866;52.420;10.640;2022-10-28T17:39:04;18.10;99.90
40151;DHT22;25866;52.420;10.640;2022-10-28T17:41:30;18.10;99.90
40151;DHT22;25866;52.420;10.640;2022-10-28T17:43:55;18.20;99.90
40151;DHT22;25866;52.420;10.640;2022-10-28T17:46:22;18.30;99.90
40151;DHT22;25866;52.420;10.640;2022-10-28T17:48:48;18.30;99.90
40151;DHT22;25866;52.420;10.640;2022-10-28T17:51:14;18.30;99.90
40151;DHT22;25866;52.420;10.640;2022-10-28T17:53:42;18.40;99.90
40151;DHT22;25866;52.420;10.640;2022-10-28T17:56:08;18.40;99.90
40151;DHT22;25866;52.420;10.640;2022-10-28T17:58:33;18.40;99.90
40151;DHT22;25866;52.420;10.640;2022-10-28T18:01:02;18.40;99.90
40151;DHT22;25866;52.420;10.640;2022-10-28T18:03:28;18.30;99.90
40151;DHT22;25866;52.420;10.640;2022-10-28T18:05:54;18.40;99.90
40151;DHT22;25866;52.420;10.640;2022-10-28T18:08:20;18.30;99.90
40151;DHT22;25866;52.420;10.640;2022-10-28T18:10:53;18.30;99.90
40151;DHT22;25866;52.420;10.640;2022-10-28T18:13:30;18.40;99.90
40151;DHT22;25866;52.420;10.640;2022-10-28T18:16:13;18.30;99.90
40151;DHT22;25866;52.420;10.640;2022-10-28T18:18:39;18.40;99.90
40151;DHT22;25866;52.420;10.640;2022-10-28T18:21:06;18.50;99.90
40151;DHT22;25866;52.420;10.640;2022-10-28T18:23:33;18.50;99.90
40151;DHT22;25866;52.420;10.640;2022-10-28T18:26:08;18.50;99.90
40151;DHT22;25866;52.420;10.640;2022-10-28T18:28:35;18.50;99.90
40151;DHT22;25866;52.420;10.640;2022-10-28T18:31:03;18.50;99.90
40151;DHT22;25866;52.420;10.640;2022-10-28T18:33:30;18.50;99.90
40151;DHT22;25866;52.420;10.640;2022-10-28T18:35:58;18.50;99.90